Austin, TX (78701)

1:25 PM CST on February 09, 2016 (GMT -0600)
West End | | Change Station
CLOSE
Current Station
Personal Weather Station
Location: Austin, TX
Elevation: 564 ft
Nearby Weather Stations

Elev 564 ft 30.28 °N, 97.75 °W | Updated 45 seconds ago

Clear
Clear
66.2 °F
Feels Like 66.2 °F
N
7.6
Wind Variable Wind from NW
Gusts 12.3 mph

Today
High -- | Low -- °F
--% Chance of Precip.
Yesterday
High -- | Low -- °F
Precip. -- in
Pressure 30.31 in
Visibility 10.0 miles
Clouds Clear
Dew Point 25 °F
Humidity 21%
Rainfall 0.00 in
Snow Depth Not available.
7:16 AM 6:14 PM
New Moon, 2% visible
METAR KATT 091851Z AUTO 30007G17KT 10SM CLR 18/M03 A3031 RMK AO2 SLP264 T01831028
Pressure 30.31 in
Visibility 10.0 miles
Clouds Clear
Dew Point 25 °F
Humidity 21%
Rainfall 0.00 in
Snow Depth Not available.
7:16 AM 6:14 PM
New Moon, 2% visible
METAR KATT 091851Z AUTO 30007G17KT 10SM CLR 18/M03 A3031 RMK AO2 SLP264 T01831028

10-Day Weather Forecast

Almanac

Astronomy

Feb. 09, 2016 Rise Set
Actual Time
Civil Twilight
Nautical Twilight
Astronomical Twilight
Moon
Length of Visible Light
Length of Day
Tomorrow will be .
, % of the Moon is Illuminated

Today's Extremes

State Highs State Lows

Community

WunderPhotos

Upload Photos

1,891,668 photos uploaded!

WunderBlog® & News

Nearby

Air Quality

  Air Quality AQ Index Pollutant
Not available.

Snow Depth

Station Depth Elevation

Earthquake Activity

City Distance Mag. Time & Date
Minimum magnitude displayed is 2.5.

Coastal Water Temperatures

Place Temperature

Stations

Nearby Weather Stations

Station Location Temp. Windchill Dew Point Humidity Wind Precip. Elev Updated Type
                   

Watches & Warnings

There are currently no watches in effect.